メインページ
METAR-TAF:

METAR-TAF

空港 :

重慶, 中華人民共和国

重慶江北国際空港

緯度: 29-31N, 経度: 106-29E, 海抜: 351m

現時点の気象観測

当レポートは36分前の09:00(UTC)に作成
変向風 2kt
気温 26°C
湿度 37%
気圧 1010 hPa
視程10km以上
高度3000ftの雲はほとんどない

METAR: ZUCK 290900Z VRB01MPS 9999 FEW030 26/10 Q1010 NOSIG

時間: 17:36 (09:36 UTC)

予報

当レポートは6時間30分前の03:06(UTC)に作成
予報は29日の 06時(UTC)から 30日の 06時(UTC)まで有効
の風 6kt
視程: 5000m
高度5000ftの雲は散在している

TAF: ZUCK 290306Z 2906/3006 18003MPS 5000 BR SCT050 TX26/2907Z TN16/2922Z

4,000以上の空港の気象観測と天気予報(METAR報とTAF報)

利用可能な観測所は地図上に黄色い丸と赤い丸で示す。

丸の上にカーソルを重ねると観測所名を参照できる。

次にクリックすると気象観測と天気予報を参照できる。

マップの切り替え:黒色「×」印の緑ボタンをクリックして拡大、「-」印の緑ボタンをクリックして縮小、緑色の三角印をクリックして隣りの地図に切り替え


METAR-TAF: